Time,TemperatureF,DewpointF,PressureIn,WindDirection,WindDirectionDegrees,WindSpeedMPH,WindSpeedGustMPH,Humidity,HourlyPrecipIn,Conditions,Clouds,dailyrainin,SolarRadiationWatts/m^2,SoftwareType,DateUTC
2013-04-22 00:00:00,40.3,34.0,30.39,ESE,102,0.0,-999.0,78,-99.99,,,0.00,0,weatherlink.com 1.10,2013-04-22 04:00:00,
2013-04-22 00:15:00,40.2,34.0,30.39,East,95,2.0,-999.0,78,-99.99,,,0.00,0,weatherlink.com 1.10,2013-04-22 04:15:00,
2013-04-22 00:30:00,40.0,33.0,30.39,ENE,77,0.0,-999.0,77,-99.99,,,0.00,0,weatherlink.com 1.10,2013-04-22 04:30:00,
2013-04-22 00:45:00,39.9,34.0,30.39,ENE,66,0.0,-999.0,78,-99.99,,,0.00,0,weatherlink.com 1.10,2013-04-22 04:45:00,
2013-04-22 01:00:00,40.0,33.0,30.39,East,83,3.0,-999.0,77,-99.99,,,0.00,0,weatherlink.com 1.10,2013-04-22 05:00:00,
2013-04-22 01:15:00,40.0,34.0,30.38,East,85,1.0,-999.0,79,-99.99,,,0.00,0,weatherlink.com 1.10,2013-04-22 05:15:00,
2013-04-22 01:30:00,39.7,34.0,30.38,ESE,110,5.0,-999.0,80,-99.99,,,0.00,0,weatherlink.com 1.10,2013-04-22 05:30:00,
2013-04-22 01:45:00,39.4,34.0,30.38,ENE,63,0.0,-999.0,81,-99.99,,,0.00,0,weatherlink.com 1.10,2013-04-22 05:45:00,
2013-04-22 02:00:00,38.9,34.0,30.38,ENE,73,2.0,-999.0,83,-99.99,,,0.00,0,weatherlink.com 1.10,2013-04-22 06:00:00,
2013-04-22 02:15:00,38.3,34.0,30.37,ENE,66,2.0,-999.0,84,-99.99,,,0.00,0,weatherlink.com 1.10,2013-04-22 06:15:00,
2013-04-22 02:30:00,37.8,34.0,30.37,East,100,0.0,-999.0,85,-99.99,,,0.00,0,weatherlink.com 1.10,2013-04-22 06:30:00,
2013-04-22 02:45:00,37.5,33.0,30.36,ENE,60,1.0,-999.0,85,-99.99,,,0.00,0,weatherlink.com 1.10,2013-04-22 06:45:00,
2013-04-22 03:00:00,37.2,33.0,30.36,ENE,57,1.0,-999.0,86,-99.99,,,0.00,0,weatherlink.com 1.10,2013-04-22 07:00:00,
2013-04-22 03:15:00,36.9,33.0,30.35,ENE,76,0.0,-999.0,86,-99.99,,,0.00,0,weatherlink.com 1.10,2013-04-22 07:15:00,
2013-04-22 03:30:00,36.5,33.0,30.35,NE,45,2.0,-999.0,87,-99.99,,,0.00,0,weatherlink.com 1.10,2013-04-22 07:30:00,
2013-04-22 03:45:00,36.1,33.0,30.35,NE,48,1.0,-999.0,88,-99.99,,,0.00,0,weatherlink.com 1.10,2013-04-22 07:45:00,
2013-04-22 04:00:00,35.8,33.0,30.35,NE,52,0.0,-999.0,88,-99.99,,,0.00,0,weatherlink.com 1.10,2013-04-22 08:00:00,
2013-04-22 04:15:00,35.8,33.0,30.34,NE,36,1.0,-999.0,88,-99.99,,,0.00,0,weatherlink.com 1.10,2013-04-22 08:15:00,
2013-04-22 04:30:00,35.5,32.0,30.34,ENE,76,3.0,-999.0,88,-99.99,,,0.00,0,weatherlink.com 1.10,2013-04-22 08:30:00,
2013-04-22 04:45:00,35.3,32.0,30.34,ENE,75,2.0,-999.0,89,-99.99,,,0.00,0,weatherlink.com 1.10,2013-04-22 08:45:00,
2013-04-22 05:00:00,35.1,32.0,30.34,NE,48,3.0,-999.0,89,-99.99,,,0.00,0,weatherlink.com 1.10,2013-04-22 09:00:00,
2013-04-22 05:15:00,34.8,32.0,30.33,NE,50,1.0,-999.0,89,-99.99,,,0.00,0,weatherlink.com 1.10,2013-04-22 09:15:00,
2013-04-22 05:30:00,34.3,32.0,30.33,NE,46,2.0,-999.0,90,-99.99,,,0.00,0,weatherlink.com 1.10,2013-04-22 09:30:00,
2013-04-22 05:45:00,34.1,32.0,30.33,NE,37,2.0,-999.0,90,-99.99,,,0.00,0,weatherlink.com 1.10,2013-04-22 09:45:00,
2013-04-22 06:00:00,34.0,31.0,30.32,NE,50,2.0,-999.0,90,-99.99,,,0.00,0,weatherlink.com 1.10,2013-04-22 10:00:00,
2013-04-22 06:15:00,33.9,31.0,30.33,NE,34,3.0,-999.0,90,-99.99,,,0.00,0,weatherlink.com 1.10,2013-04-22 10:15:00,
2013-04-22 06:30:00,33.8,31.0,30.33,NE,49,2.0,-999.0,90,-99.99,,,0.00,0,weatherlink.com 1.10,2013-04-22 10:30:00,
2013-04-22 06:45:00,33.6,31.0,30.33,NE,49,3.0,-999.0,90,-99.99,,,0.00,0,weatherlink.com 1.10,2013-04-22 10:45:00,
2013-04-22 07:00:00,33.3,31.0,30.33,ENE,58,1.0,-999.0,91,-99.99,,,0.00,7,weatherlink.com 1.10,2013-04-22 11:00:00,
2013-04-22 07:15:00,33.2,31.0,30.33,ENE,60,2.0,-999.0,91,-99.99,,,0.00,16,weatherlink.com 1.10,2013-04-22 11:15:00,
2013-04-22 07:30:00,33.5,31.0,30.33,NE,51,3.0,-999.0,91,-99.99,,,0.00,42,weatherlink.com 1.10,2013-04-22 11:30:00,
2013-04-22 07:45:00,34.3,32.0,30.33,NE,52,2.0,-999.0,90,-99.99,,,0.00,83,weatherlink.com 1.10,2013-04-22 11:45:00,
2013-04-22 08:00:00,35.2,32.0,30.34,NE,40,4.0,-999.0,89,-99.99,,,0.00,123,weatherlink.com 1.10,2013-04-22 12:00:00,
2013-04-22 08:15:00,36.2,33.0,30.34,ENE,65,2.0,-999.0,87,-99.99,,,0.00,171,weatherlink.com 1.10,2013-04-22 12:15:00,
2013-04-22 08:30:00,37.4,34.0,30.33,East,89,0.0,-999.0,86,-99.99,,,0.00,209,weatherlink.com 1.10,2013-04-22 12:30:00,
2013-04-22 08:45:00,38.5,34.0,30.33,East,81,1.0,-999.0,85,-99.99,,,0.00,255,weatherlink.com 1.10,2013-04-22 12:45:00,
2013-04-22 09:00:00,39.9,35.0,30.32,East,87,3.0,-999.0,82,-99.99,,,0.00,304,weatherlink.com 1.10,2013-04-22 13:00:00,
2013-04-22 09:15:00,41.3,36.0,30.32,East,96,2.0,-999.0,81,-99.99,,,0.00,355,weatherlink.com 1.10,2013-04-22 13:15:00,
2013-04-22 09:30:00,42.4,36.0,30.32,East,86,2.0,-999.0,79,-99.99,,,0.00,404,weatherlink.com 1.10,2013-04-22 13:30:00,
2013-04-22 09:45:00,44.1,38.0,30.32,East,89,2.0,-999.0,78,-99.99,,,0.00,455,weatherlink.com 1.10,2013-04-22 13:45:00,
2013-04-22 10:00:00,45.2,37.0,30.32,SSE,147,5.0,-999.0,74,-99.99,,,0.00,501,weatherlink.com 1.10,2013-04-22 14:00:00,
2013-04-22 10:15:00,46.5,38.0,30.32,SE,136,3.0,-999.0,73,-99.99,,,0.00,547,weatherlink.com 1.10,2013-04-22 14:15:00,
2013-04-22 10:30:00,48.0,39.0,30.32,SSE,147,4.0,-999.0,70,-99.99,,,0.00,587,weatherlink.com 1.10,2013-04-22 14:30:00,
2013-04-22 10:45:00,50.0,40.0,30.31,SE,144,0.0,-999.0,68,-99.99,,,0.00,631,weatherlink.com 1.10,2013-04-22 14:45:00,
2013-04-22 11:00:00,51.4,39.0,30.31,East,81,6.0,-999.0,63,-99.99,,,0.00,628,weatherlink.com 1.10,2013-04-22 15:00:00,
2013-04-22 11:15:00,52.6,38.0,30.31,ESE,120,2.0,-999.0,59,-99.99,,,0.00,687,weatherlink.com 1.10,2013-04-22 15:15:00,
2013-04-22 11:30:00,54.6,40.0,30.31,SE,126,3.0,-999.0,59,-99.99,,,0.00,738,weatherlink.com 1.10,2013-04-22 15:30:00,
2013-04-22 11:45:00,55.6,39.0,30.31,ESE,120,3.0,-999.0,55,-99.99,,,0.00,768,weatherlink.com 1.10,2013-04-22 15:45:00,
2013-04-22 12:00:00,56.3,37.0,30.30,South,175,3.0,-999.0,49,-99.99,,,0.00,766,weatherlink.com 1.10,2013-04-22 16:00:00,
2013-04-22 12:15:00,57.3,38.0,30.30,SE,144,5.0,-999.0,48,-99.99,,,0.00,814,weatherlink.com 1.10,2013-04-22 16:15:00,
2013-04-22 12:30:00,57.6,33.0,30.29,SE,135,6.0,-999.0,39,-99.99,,,0.00,831,weatherlink.com 1.10,2013-04-22 16:30:00,
2013-04-22 12:45:00,58.6,36.0,30.28,ESE,116,7.0,-999.0,43,-99.99,,,0.00,856,weatherlink.com 1.10,2013-04-22 16:45:00,
2013-04-22 13:00:00,58.9,35.0,30.27,ESE,114,3.0,-999.0,41,-99.99,,,0.00,879,weatherlink.com 1.10,2013-04-22 17:00:00,
2013-04-22 13:15:00,59.5,35.0,30.26,SE,129,5.0,-999.0,40,-99.99,,,0.00,889,weatherlink.com 1.10,2013-04-22 17:15:00,
2013-04-22 13:30:00,59.9,39.0,30.26,South,169,6.0,-999.0,46,-99.99,,,0.00,895,weatherlink.com 1.10,2013-04-22 17:30:00,
2013-04-22 13:45:00,59.5,36.0,30.25,SE,127,3.0,-999.0,42,-99.99,,,0.00,898,weatherlink.com 1.10,2013-04-22 17:45:00,
2013-04-22 14:00:00,60.2,37.0,30.24,ESE,112,2.0,-999.0,43,-99.99,,,0.00,902,weatherlink.com 1.10,2013-04-22 18:00:00,
2013-04-22 14:15:00,61.5,33.0,30.23,ESE,118,4.0,-999.0,34,-99.99,,,0.00,896,weatherlink.com 1.10,2013-04-22 18:15:00,
2013-04-22 14:30:00,61.3,34.0,30.23,SE,125,6.0,-999.0,36,-99.99,,,0.00,888,weatherlink.com 1.10,2013-04-22 18:30:00,
2013-04-22 14:45:00,61.3,36.0,30.23,SSE,149,6.0,-999.0,39,-99.99,,,0.00,875,weatherlink.com 1.10,2013-04-22 18:45:00,
2013-04-22 15:00:00,62.4,38.0,30.23,ESE,103,4.0,-999.0,40,-99.99,,,0.00,860,weatherlink.com 1.10,2013-04-22 19:00:00,
2013-04-22 15:15:00,62.3,35.0,30.23,SSE,162,6.0,-999.0,36,-99.99,,,0.00,842,weatherlink.com 1.10,2013-04-22 19:15:00,
2013-04-22 15:30:00,63.1,37.0,30.22,SE,146,4.0,-999.0,38,-99.99,,,0.00,786,weatherlink.com 1.10,2013-04-22 19:30:00,
2013-04-22 15:45:00,62.5,37.0,30.20,SE,139,3.0,-999.0,39,-99.99,,,0.00,796,weatherlink.com 1.10,2013-04-22 19:45:00,
2013-04-22 16:00:00,63.6,39.0,30.19,SSE,158,4.0,-999.0,41,-99.99,,,0.00,765,weatherlink.com 1.10,2013-04-22 20:00:00,
2013-04-22 16:15:00,63.9,39.0,30.19,South,171,3.0,-999.0,40,-99.99,,,0.00,733,weatherlink.com 1.10,2013-04-22 20:15:00,
2013-04-22 16:30:00,64.0,37.0,30.18,South,174,8.0,-999.0,37,-99.99,,,0.00,693,weatherlink.com 1.10,2013-04-22 20:30:00,
2013-04-22 16:45:00,64.1,37.0,30.17,SSE,166,6.0,-999.0,37,-99.99,,,0.00,563,weatherlink.com 1.10,2013-04-22 20:45:00,
2013-04-22 17:00:00,64.4,38.0,30.16,SE,145,6.0,-999.0,38,-99.99,,,0.00,626,weatherlink.com 1.10,2013-04-22 21:00:00,
2013-04-22 17:15:00,64.5,38.0,30.16,South,189,5.0,-999.0,38,-99.99,,,0.00,577,weatherlink.com 1.10,2013-04-22 21:15:00,
2013-04-22 17:30:00,64.4,37.0,30.15,SE,131,6.0,-999.0,36,-99.99,,,0.00,533,weatherlink.com 1.10,2013-04-22 21:30:00,
2013-04-22 17:45:00,65.1,40.0,30.14,SE,141,5.0,-999.0,40,-99.99,,,0.00,489,weatherlink.com 1.10,2013-04-22 21:45:00,
2013-04-22 18:00:00,64.7,37.0,30.14,SSE,163,9.0,-999.0,36,-99.99,,,0.00,443,weatherlink.com 1.10,2013-04-22 22:00:00,
2013-04-22 18:15:00,65.0,39.0,30.13,South,177,6.0,-999.0,38,-99.99,,,0.00,397,weatherlink.com 1.10,2013-04-22 22:15:00,
2013-04-22 18:30:00,65.1,39.0,30.12,SE,137,9.0,-999.0,38,-99.99,,,0.00,345,weatherlink.com 1.10,2013-04-22 22:30:00,
2013-04-22 18:45:00,64.7,38.0,30.11,SE,131,9.0,-999.0,38,-99.99,,,0.00,287,weatherlink.com 1.10,2013-04-22 22:45:00,
2013-04-22 19:00:00,64.6,38.0,30.11,SSE,159,8.0,-999.0,38,-99.99,,,0.00,229,weatherlink.com 1.10,2013-04-22 23:00:00,
2013-04-22 19:15:00,64.4,38.0,30.11,SSE,164,8.0,-999.0,38,-99.99,,,0.00,183,weatherlink.com 1.10,2013-04-22 23:15:00,
2013-04-22 19:30:00,64.0,40.0,30.10,SSE,159,5.0,-999.0,41,-99.99,,,0.00,128,weatherlink.com 1.10,2013-04-22 23:30:00,
2013-04-22 19:45:00,63.2,41.0,30.10,SSE,156,4.0,-999.0,44,-99.99,,,0.00,76,weatherlink.com 1.10,2013-04-22 23:45:00,
2013-04-22 20:00:00,62.2,40.0,30.10,SSE,160,7.0,-999.0,45,-99.99,,,0.00,30,weatherlink.com 1.10,2013-04-23 00:00:00,
2013-04-22 20:15:00,60.9,40.0,30.10,SSE,156,6.0,-999.0,47,-99.99,,,0.00,14,weatherlink.com 1.10,2013-04-23 00:15:00,
2013-04-22 20:30:00,59.6,40.0,30.10,SSE,156,4.0,-999.0,49,-99.99,,,0.00,0,weatherlink.com 1.10,2013-04-23 00:30:00,
2013-04-22 20:45:00,59.3,40.0,30.10,SE,142,4.0,-999.0,50,-99.99,,,0.00,0,weatherlink.com 1.10,2013-04-23 00:45:00,
2013-04-22 21:00:00,59.3,40.0,30.10,SE,137,2.0,-999.0,50,-99.99,,,0.00,0,weatherlink.com 1.10,2013-04-23 01:00:00,
2013-04-22 21:15:00,58.2,40.0,30.10,SE,134,1.0,-999.0,52,-99.99,,,0.00,0,weatherlink.com 1.10,2013-04-23 01:15:00,
2013-04-22 21:30:00,56.4,41.0,30.11,SE,134,0.0,-999.0,57,-99.99,,,0.00,0,weatherlink.com 1.10,2013-04-23 01:30:00,
2013-04-22 21:45:00,56.2,40.0,30.11,SE,140,0.0,-999.0,55,-99.99,,,0.00,0,weatherlink.com 1.10,2013-04-23 01:45:00,
2013-04-22 22:00:00,55.6,42.0,30.11,SE,135,0.0,-999.0,60,-99.99,,,0.00,0,weatherlink.com 1.10,2013-04-23 02:00:00,
2013-04-22 22:15:00,54.8,42.0,30.11,ESE,110,0.0,-999.0,63,-99.99,,,0.00,0,weatherlink.com 1.10,2013-04-23 02:15:00,
2013-04-22 22:30:00,53.7,41.0,30.11,SSE,152,0.0,-999.0,62,-99.99,,,0.00,0,weatherlink.com 1.10,2013-04-23 02:30:00,
2013-04-22 22:45:00,53.4,40.0,30.11,SE,133,1.0,-999.0,61,-99.99,,,0.00,0,weatherlink.com 1.10,2013-04-23 02:45:00,
2013-04-22 23:00:00,53.1,41.0,30.11,SE,126,0.0,-999.0,64,-99.99,,,0.00,0,weatherlink.com 1.10,2013-04-23 03:00:00,
2013-04-22 23:15:00,52.6,41.0,30.11,SE,126,0.0,-999.0,64,-99.99,,,0.00,0,weatherlink.com 1.10,2013-04-23 03:15:00,
2013-04-22 23:30:00,52.6,40.0,30.10,SE,126,0.0,-999.0,62,-99.99,,,0.00,0,weatherlink.com 1.10,2013-04-23 03:30:00,
2013-04-22 23:45:00,52.8,39.0,30.10,East,95,1.0,-999.0,60,-99.99,,,0.00,0,weatherlink.com 1.10,2013-04-23 03:45:00,